Time;durP1;ratioP1;P1;durP2;ratioP2;P2;SDS_P1;SDS_P2;PMS_P1;PMS_P2;Temp;Humidity;BMP_temperature;BMP_pressure;BME280_temperature;BME280_humidity;BME280_pressure;Samples;Min_cycle;Max_cycle;Signal;HPM_P1;HPM_P2
2022/10/22 00:01:41;;;;;;;11.57;6.47;;;13.70;99.90;;;;;;5060991;28;20507;-65
2022/10/22 00:04:06;;;;;;;16.08;7.03;;;13.70;99.90;;;;;;5060173;28;20380;-65
2022/10/22 00:06:32;;;;;;;8.90;6.15;;;13.80;99.90;;;;;;5045251;28;20044;-64
2022/10/22 00:08:58;;;;;;;14.98;6.97;;;13.90;99.90;;;;;;5060803;28;20483;-64
2022/10/22 00:11:24;;;;;;;13.23;6.68;;;13.80;99.90;;;;;;5043680;28;20040;-65
2022/10/22 00:13:50;;;;;;;7.95;5.85;;;13.80;99.90;;;;;;5061128;28;20040;-64
2022/10/22 00:16:15;;;;;;;12.73;6.78;;;13.80;99.90;;;;;;5043573;28;20029;-64
2022/10/22 00:18:41;;;;;;;12.02;6.07;;;13.80;99.90;;;;;;5062405;28;20033;-64
2022/10/22 00:21:07;;;;;;;14.98;6.70;;;13.80;99.90;;;;;;5047690;28;20109;-64
2022/10/22 00:23:32;;;;;;;10.90;6.55;;;13.80;99.90;;;;;;5066111;28;20036;-65
2022/10/22 00:25:59;;;;;;;15.73;6.97;;;13.80;99.90;;;;;;5063811;28;20040;-64
2022/10/22 00:28:24;;;;;;;12.48;6.70;;;13.80;99.90;;;;;;5068961;28;20044;-63
2022/10/22 00:30:58;;;;;;;11.45;6.45;;;13.80;99.90;;;;;;5050621;28;20036;-64
2022/10/22 00:33:24;;;;;;;15.77;6.88;;;13.80;99.90;;;;;;5063737;28;20180;-65
2022/10/22 00:35:49;;;;;;;13.80;7.07;;;13.90;99.90;;;;;;5070290;28;20260;-64
2022/10/22 00:38:15;;;;;;;13.60;6.88;;;13.90;99.90;;;;;;5061634;28;20495;-64
2022/10/22 00:40:41;;;;;;;15.55;6.82;;;13.80;99.90;;;;;;5062048;28;20036;-64
2022/10/22 00:43:14;;;;;;;12.27;7.30;;;13.70;99.90;;;;;;5063218;28;20033;-65
2022/10/22 00:45:40;;;;;;;14.43;7.20;;;13.80;99.90;;;;;;5061276;28;20033;-64
2022/10/22 00:48:22;;;;;;;13.93;7.22;;;13.70;99.90;;;;;;5063484;28;20043;-64
2022/10/22 00:51:01;;;;;;;12.13;6.53;;;13.70;99.90;;;;;;5063286;28;20116;-65
2022/10/22 00:53:48;;;;;;;12.98;6.68;;;13.70;99.90;;;;;;5084882;28;20390;-65
2022/10/22 00:56:14;;;;;;;13.20;6.57;;;13.60;99.90;;;;;;5081821;28;20055;-63
2022/10/22 00:58:47;;;;;;;14.35;6.40;;;13.70;99.90;;;;;;5084178;28;20035;-64
2022/10/22 01:01:17;;;;;;;11.95;6.47;;;13.70;99.90;;;;;;5079592;28;20031;-64
2022/10/22 01:03:42;;;;;;;11.50;6.30;;;13.70;99.90;;;;;;5047416;28;20706;-64
2022/10/22 01:06:13;;;;;;;10.98;6.00;;;13.80;99.90;;;;;;5061409;28;21407;-64
2022/10/22 01:08:52;;;;;;;12.05;5.88;;;13.80;99.90;;;;;;5063435;28;20048;-64
2022/10/22 01:11:26;;;;;;;13.50;6.47;;;13.70;99.90;;;;;;5061468;28;20040;-65
2022/10/22 01:14:08;;;;;;;13.75;6.97;;;13.80;99.90;;;;;;5047726;28;20461;-64
2022/10/22 01:16:44;;;;;;;14.80;6.25;;;13.80;99.90;;;;;;5069724;28;20028;-64
2022/10/22 01:19:26;;;;;;;14.40;7.15;;;13.80;99.90;;;;;;5069836;28;20063;-64
2022/10/22 01:22:17;;;;;;;11.52;6.43;;;13.80;99.90;;;;;;5083396;28;20457;-64
2022/10/22 01:25:06;;;;;;;16.25;6.85;;;13.80;99.90;;;;;;5064696;28;20043;-64
2022/10/22 01:28:27;;;;;;;12.48;6.80;;;13.80;99.90;;;;;;5078907;28;20040;-64
2022/10/22 01:30:55;;;;;;;13.07;6.65;;;13.80;99.90;;;;;;5013790;28;20068;-64
2022/10/22 01:33:23;;;;;;;10.82;6.13;;;13.80;99.90;;;;;;5061189;28;20661;-64
2022/10/22 01:35:51;;;;;;;14.13;6.53;;;13.80;99.90;;;;;;5064945;28;20039;-64
2022/10/22 01:38:21;;;;;;;12.23;6.93;;;13.80;99.90;;;;;;5063568;28;20064;-64
2022/10/22 01:40:48;;;;;;;12.75;6.10;;;13.70;99.90;;;;;;5064053;28;20036;-64
2022/10/22 01:43:14;;;;;;;12.90;6.30;;;13.70;99.90;;;;;;5060591;28;20036;-63
2022/10/22 01:45:44;;;;;;;8.13;6.03;;;13.70;99.90;;;;;;5064981;28;20024;-65
2022/10/22 01:48:38;;;;;;;8.80;6.00;;;13.70;99.90;;;;;;5063190;28;20429;-63
2022/10/22 01:51:22;;;;;;;11.10;6.13;;;13.70;99.90;;;;;;5063375;28;20063;-64
2022/10/22 01:53:57;;;;;;;14.70;6.55;;;13.70;99.90;;;;;;5064122;28;20032;-64
2022/10/22 01:56:43;;;;;;;15.70;7.07;;;13.70;99.90;;;;;;5062726;28;20028;-64
2022/10/22 01:59:30;;;;;;;15.05;6.18;;;13.60;99.90;;;;;;5061698;28;20082;-64
2022/10/22 02:02:02;;;;;;;13.32;6.68;;;13.50;99.90;;;;;;5062792;28;20044;-64
2022/10/22 02:04:41;;;;;;;11.13;5.97;;;13.60;99.90;;;;;;5083016;28;20048;-65
2022/10/22 02:07:10;;;;;;;12.23;5.72;;;13.50;99.90;;;;;;5083052;28;20040;-64
2022/10/22 02:09:38;;;;;;;12.75;5.70;;;13.50;99.90;;;;;;5079883;28;20036;-65
2022/10/22 02:12:06;;;;;;;10.07;6.13;;;13.40;99.90;;;;;;5082729;28;20040;-64
2022/10/22 02:14:35;;;;;;;11.38;5.78;;;13.40;99.90;;;;;;5084375;28;20089;-65
2022/10/22 02:17:01;;;;;;;10.63;5.95;;;13.40;99.90;;;;;;5063198;28;20135;-64
2022/10/22 02:19:46;;;;;;;10.05;5.60;;;13.40;99.90;;;;;;5084406;28;20098;-64
2022/10/22 02:22:11;;;;;;;9.82;5.70;;;13.40;99.90;;;;;;5082376;28;20104;-64
2022/10/22 02:24:37;;;;;;;10.90;5.65;;;13.40;99.90;;;;;;5084774;28;20039;-64
2022/10/22 02:27:08;;;;;;;8.25;5.00;;;13.30;99.90;;;;;;5077413;28;20035;-64
2022/10/22 02:29:39;;;;;;;7.97;5.68;;;13.30;99.90;;;;;;5081713;28;20061;-64
2022/10/22 02:32:08;;;;;;;11.18;5.70;;;13.30;99.90;;;;;;5081723;28;20067;-64
2022/10/22 02:34:34;;;;;;;10.25;5.63;;;13.40;99.90;;;;;;5066486;28;20044;-64
2022/10/22 02:37:02;;;;;;;9.25;5.75;;;13.40;99.90;;;;;;5083694;28;20144;-64
2022/10/22 02:39:28;;;;;;;12.30;6.13;;;13.40;99.90;;;;;;5082924;28;20040;-65
2022/10/22 02:41:56;;;;;;;12.45;6.35;;;13.40;99.90;;;;;;5081356;28;20121;-65
2022/10/22 02:44:22;;;;;;;12.70;6.13;;;13.40;99.90;;;;;;5065220;28;20535;-64
2022/10/22 02:46:48;;;;;;;10.25;6.68;;;13.50;99.90;;;;;;5083781;28;20047;-64
2022/10/22 02:49:14;;;;;;;10.25;5.90;;;13.50;99.90;;;;;;5069089;28;20036;-63
2022/10/22 02:51:39;;;;;;;13.68;6.65;;;13.50;99.90;;;;;;5083389;28;20709;-63
2022/10/22 02:54:05;;;;;;;14.52;6.57;;;13.50;99.90;;;;;;5082629;28;20123;-63
2022/10/22 02:56:31;;;;;;;11.32;6.20;;;13.50;99.90;;;;;;5083010;28;20043;-64
2022/10/22 02:58:56;;;;;;;12.40;6.25;;;13.50;99.90;;;;;;5082981;28;20047;-65
2022/10/22 03:01:22;;;;;;;10.93;6.47;;;13.50;99.90;;;;;;5081747;28;20035;-64
2022/10/22 03:03:48;;;;;;;13.80;6.55;;;13.50;99.90;;;;;;5060909;28;20066;-65
2022/10/22 03:06:14;;;;;;;11.68;6.60;;;13.50;99.90;;;;;;5083037;28;20036;-64
2022/10/22 03:08:40;;;;;;;14.85;7.13;;;13.50;99.90;;;;;;5082779;28;20088;-64
2022/10/22 03:11:05;;;;;;;12.95;6.85;;;13.50;99.90;;;;;;5080598;28;20036;-65
2022/10/22 03:13:31;;;;;;;12.15;6.80;;;13.50;99.90;;;;;;5082455;28;20043;-64
2022/10/22 03:15:57;;;;;;;13.27;6.60;;;13.50;99.90;;;;;;5083410;28;20197;-65
2022/10/22 03:18:22;;;;;;;15.88;6.68;;;13.50;99.90;;;;;;5083084;28;20024;-65
2022/10/22 03:20:48;;;;;;;11.63;6.47;;;13.50;99.90;;;;;;5064802;28;20195;-64
2022/10/22 03:23:18;;;;;;;11.65;6.53;;;13.50;99.90;;;;;;5081525;28;20101;-65
2022/10/22 03:25:47;;;;;;;8.88;6.20;;;13.40;99.90;;;;;;5083519;28;20082;-64
2022/10/22 03:28:15;;;;;;;11.98;7.15;;;13.40;99.90;;;;;;5079569;28;20028;-64
2022/10/22 03:30:41;;;;;;;12.82;6.95;;;13.30;99.90;;;;;;5082828;28;20081;-64
2022/10/22 03:33:07;;;;;;;13.13;7.38;;;13.40;99.90;;;;;;5050242;28;20045;-65
2022/10/22 03:35:42;;;;;;;11.98;7.07;;;13.40;99.90;;;;;;5083159;28;20684;-65
2022/10/22 03:38:08;;;;;;;16.30;7.68;;;13.40;99.90;;;;;;5077617;28;20530;-64
2022/10/22 03:40:33;;;;;;;14.50;7.65;;;13.40;99.90;;;;;;5083845;28;20036;-64
2022/10/22 03:42:59;;;;;;;14.25;7.60;;;13.40;99.90;;;;;;5080606;28;20032;-65
2022/10/22 03:45:25;;;;;;;11.48;7.18;;;13.40;99.90;;;;;;5076748;28;20028;-65
2022/10/22 03:47:50;;;;;;;12.20;6.85;;;13.50;99.90;;;;;;5081866;28;20058;-65
2022/10/22 03:50:16;;;;;;;19.73;8.18;;;13.50;99.90;;;;;;5082779;28;20377;-63
2022/10/22 03:52:41;;;;;;;14.65;7.88;;;13.50;99.90;;;;;;5081897;28;20317;-64
2022/10/22 03:55:08;;;;;;;19.63;8.23;;;13.40;99.90;;;;;;5081097;28;20043;-64
2022/10/22 03:57:33;;;;;;;14.02;8.00;;;13.50;99.90;;;;;;5082350;28;20032;-63
2022/10/22 03:59:59;;;;;;;14.18;8.32;;;13.50;99.90;;;;;;5082744;28;20361;-65
2022/10/22 04:02:24;;;;;;;18.27;8.77;;;13.50;99.90;;;;;;5075532;28;20103;-64
2022/10/22 04:04:50;;;;;;;13.27;8.27;;;13.50;99.90;;;;;;5082683;28;20372;-64
2022/10/22 04:07:16;;;;;;;18.08;9.00;;;13.50;99.90;;;;;;5080727;28;20054;-64
2022/10/22 04:09:41;;;;;;;17.38;8.02;;;13.40;99.90;;;;;;5081047;28;20044;-64
2022/10/22 04:12:08;;;;;;;13.65;8.70;;;13.40;99.90;;;;;;5080979;28;20648;-63
2022/10/22 04:14:34;;;;;;;12.57;7.93;;;13.40;99.90;;;;;;5082638;28;20085;-64
2022/10/22 04:16:59;;;;;;;15.75;8.07;;;13.60;99.90;;;;;;5078743;28;20048;-64
2022/10/22 04:19:25;;;;;;;16.90;8.43;;;13.40;99.90;;;;;;5082155;28;20127;-64
2022/10/22 04:21:50;;;;;;;14.10;8.07;;;13.40;99.90;;;;;;5081453;28;20032;-65
2022/10/22 04:24:16;;;;;;;14.88;7.95;;;13.40;99.90;;;;;;5082756;28;20507;-66
2022/10/22 04:26:42;;;;;;;13.73;8.00;;;13.30;99.90;;;;;;5082911;28;20076;-64
2022/10/22 04:29:08;;;;;;;16.33;8.07;;;13.40;99.90;;;;;;5080219;28;20043;-64
2022/10/22 04:31:34;;;;;;;11.32;7.93;;;13.30;99.90;;;;;;5079789;28;20448;-63
2022/10/22 04:34:00;;;;;;;13.80;9.02;;;13.40;99.90;;;;;;5082030;28;20028;-64
2022/10/22 04:36:27;;;;;;;17.75;8.57;;;13.40;99.90;;;;;;5081419;28;20430;-65
2022/10/22 04:38:58;;;;;;;14.95;8.60;;;13.40;99.90;;;;;;5081734;28;20622;-63
2022/10/22 04:41:27;;;;;;;13.25;8.38;;;13.30;99.90;;;;;;5081082;28;20123;-64
2022/10/22 04:43:54;;;;;;;16.13;8.23;;;13.30;99.90;;;;;;5081835;28;20047;-64
2022/10/22 04:46:19;;;;;;;11.82;7.63;;;13.30;99.90;;;;;;5082059;28;20036;-65
2022/10/22 04:48:46;;;;;;;18.00;8.43;;;13.20;99.90;;;;;;5081134;28;20097;-64
2022/10/22 04:51:14;;;;;;;15.77;8.50;;;13.20;99.90;;;;;;5080406;28;20042;-64
2022/10/22 04:53:40;;;;;;;11.60;8.00;;;13.20;99.90;;;;;;5082712;28;20040;-65
2022/10/22 04:56:11;;;;;;;13.38;8.80;;;13.10;99.90;;;;;;5081161;28;20040;-64
2022/10/22 04:58:37;;;;;;;12.02;8.15;;;13.20;99.90;;;;;;5063948;28;20330;-64
2022/10/22 05:01:15;;;;;;;20.75;9.43;;;13.10;99.90;;;;;;5080278;28;20065;-63
2022/10/22 05:03:41;;;;;;;14.35;8.48;;;13.10;99.90;;;;;;5082274;28;20410;-65
2022/10/22 05:06:07;;;;;;;12.35;8.63;;;13.10;99.90;;;;;;5084926;28;20159;-64
2022/10/22 05:08:33;;;;;;;11.43;8.20;;;13.10;99.90;;;;;;5085890;28;20521;-65
2022/10/22 05:10:59;;;;;;;16.20;9.15;;;13.00;99.90;;;;;;5083231;28;20036;-65
2022/10/22 05:13:25;;;;;;;14.35;8.27;;;13.00;99.90;;;;;;5083623;28;20032;-65
2022/10/22 05:15:50;;;;;;;11.18;7.93;;;13.10;99.90;;;;;;5085075;28;20039;-65
2022/10/22 05:18:16;;;;;;;10.23;8.43;;;13.00;99.90;;;;;;5085137;28;20031;-65
2022/10/22 05:20:42;;;;;;;11.15;8.55;;;13.10;99.90;;;;;;5078440;28;20044;-64
2022/10/22 05:23:07;;;;;;;12.30;8.65;;;13.20;99.90;;;;;;5082772;28;20035;-64
2022/10/22 05:25:38;;;;;;;14.05;8.98;;;13.20;99.90;;;;;;5066970;28;20411;-64
2022/10/22 05:28:03;;;;;;;12.75;8.55;;;13.40;99.90;;;;;;5082724;28;20135;-64
2022/10/22 05:30:29;;;;;;;13.25;8.88;;;13.30;99.90;;;;;;5084540;28;20535;-64
2022/10/22 05:32:55;;;;;;;14.60;9.57;;;13.40;99.90;;;;;;5083534;28;20042;-64
2022/10/22 05:35:20;;;;;;;13.77;8.98;;;13.30;99.90;;;;;;5066187;28;20028;-64
2022/10/22 05:37:46;;;;;;;16.85;9.10;;;13.20;99.90;;;;;;5082397;28;20499;-64
2022/10/22 05:40:11;;;;;;;17.73;8.48;;;13.20;99.90;;;;;;5083063;28;20035;-64
2022/10/22 05:42:37;;;;;;;21.60;9.32;;;13.10;99.90;;;;;;5084041;28;20047;-64
2022/10/22 05:45:03;;;;;;;13.02;8.50;;;13.10;99.90;;;;;;5082460;28;20039;-65
2022/10/22 05:47:29;;;;;;;18.90;9.15;;;13.10;99.90;;;;;;5083715;28;20305;-64
2022/10/22 05:49:56;;;;;;;11.57;7.82;;;13.10;99.90;;;;;;5064495;28;20226;-64
2022/10/22 05:52:22;;;;;;;17.77;9.43;;;13.10;99.90;;;;;;5084438;28;20550;-64
2022/10/22 05:54:47;;;;;;;16.75;8.75;;;13.10;99.90;;;;;;5084189;28;20461;-64
2022/10/22 05:57:13;;;;;;;15.45;8.43;;;13.10;99.90;;;;;;5082612;28;20024;-65
2022/10/22 05:59:38;;;;;;;15.32;8.68;;;13.10;99.90;;;;;;5083708;28;20123;-64
2022/10/22 06:02:04;;;;;;;12.38;7.85;;;13.10;99.90;;;;;;5064627;28;20028;-64
2022/10/22 06:04:30;;;;;;;15.43;8.45;;;13.10;99.90;;;;;;5084244;28;20101;-64
2022/10/22 06:06:56;;;;;;;16.52;8.30;;;13.10;99.90;;;;;;5083442;28;20032;-65
2022/10/22 06:09:26;;;;;;;13.70;8.43;;;13.20;99.90;;;;;;5065638;28;20043;-65
2022/10/22 06:11:52;;;;;;;16.23;8.60;;;13.10;99.90;;;;;;5063701;28;20089;-65
2022/10/22 06:14:19;;;;;;;17.10;8.10;;;13.10;99.90;;;;;;5064246;28;20039;-64
2022/10/22 06:16:44;;;;;;;12.55;7.10;;;13.20;99.90;;;;;;5083541;28;20143;-64
2022/10/22 06:19:15;;;;;;;11.88;7.82;;;13.10;99.90;;;;;;5080679;28;20039;-64
2022/10/22 06:21:41;;;;;;;12.30;7.38;;;13.20;99.90;;;;;;5063949;28;20032;-64
2022/10/22 06:24:09;;;;;;;14.38;7.57;;;13.10;99.90;;;;;;5080394;28;20864;-64
2022/10/22 06:26:35;;;;;;;11.45;8.15;;;13.10;99.90;;;;;;5083580;28;20036;-64
2022/10/22 06:29:00;;;;;;;14.35;8.30;;;13.20;99.90;;;;;;5081730;28;20639;-64
2022/10/22 06:31:27;;;;;;;11.95;7.22;;;13.10;99.90;;;;;;5047061;28;20059;-64
2022/10/22 06:33:53;;;;;;;16.05;8.05;;;13.20;99.90;;;;;;5082702;28;20043;-65
2022/10/22 06:36:23;;;;;;;14.45;8.23;;;13.20;99.90;;;;;;5079808;28;20085;-64
2022/10/22 06:38:53;;;;;;;19.98;8.25;;;13.20;99.90;;;;;;5082334;28;20047;-65
2022/10/22 06:41:19;;;;;;;16.38;8.02;;;13.20;99.90;;;;;;5060150;28;20024;-64
2022/10/22 06:43:45;;;;;;;13.40;7.72;;;13.30;99.90;;;;;;5082337;28;20666;-64
2022/10/22 06:46:13;;;;;;;13.68;7.75;;;13.30;99.90;;;;;;5082232;28;20099;-64
2022/10/22 06:48:39;;;;;;;16.70;7.40;;;13.40;99.90;;;;;;5082425;28;20058;-64
2022/10/22 06:51:07;;;;;;;12.63;7.30;;;13.50;99.90;;;;;;5063178;28;20071;-64
2022/10/22 06:53:33;;;;;;;12.70;7.80;;;13.60;99.90;;;;;;5081122;28;20107;-64
2022/10/22 06:56:10;;;;;;;15.25;7.30;;;13.60;99.90;;;;;;5082689;28;20051;-64
2022/10/22 06:58:36;;;;;;;12.27;6.93;;;13.70;99.90;;;;;;5082395;28;20403;-64
2022/10/22 07:01:07;;;;;;;13.18;6.78;;;13.80;99.90;;;;;;5057167;28;20036;-64
2022/10/22 07:03:33;;;;;;;16.00;6.30;;;13.90;99.90;;;;;;5063906;28;20487;-64
2022/10/22 07:06:00;;;;;;;11.85;6.57;;;13.90;99.90;;;;;;5081913;28;20126;-64
2022/10/22 07:08:26;;;;;;;13.45;6.63;;;14.00;99.90;;;;;;5082254;28;20044;-64
2022/10/22 07:10:51;;;;;;;10.52;6.00;;;14.00;99.90;;;;;;5082403;28;20059;-64
2022/10/22 07:13:17;;;;;;;15.15;6.00;;;14.00;99.90;;;;;;5080846;28;20046;-64
2022/10/22 07:15:42;;;;;;;14.82;6.10;;;14.00;99.90;;;;;;5083391;28;20396;-64
2022/10/22 07:18:08;;;;;;;10.32;5.45;;;14.10;99.90;;;;;;5063333;28;20036;-64
2022/10/22 07:20:33;;;;;;;9.38;4.38;;;14.10;99.90;;;;;;5081475;28;20040;-64
2022/10/22 07:22:59;;;;;;;12.23;4.70;;;14.00;99.90;;;;;;5080450;28;20510;-64
2022/10/22 07:25:24;;;;;;;12.88;4.40;;;14.10;99.90;;;;;;5082197;28;20446;-64
2022/10/22 07:27:51;;;;;;;7.32;3.92;;;14.20;99.90;;;;;;5079738;28;20040;-64
2022/10/22 07:30:16;;;;;;;11.88;4.07;;;14.10;99.90;;;;;;5081962;28;20032;-64
2022/10/22 07:32:42;;;;;;;9.65;4.15;;;14.10;99.90;;;;;;5077180;28;20047;-64
2022/10/22 07:35:08;;;;;;;12.52;4.47;;;14.10;99.90;;;;;;5075859;28;20126;-64
2022/10/22 07:37:33;;;;;;;11.73;3.80;;;14.20;99.90;;;;;;5079820;28;20040;-64
2022/10/22 07:39:59;;;;;;;10.35;4.00;;;14.20;99.90;;;;;;5080615;28;20551;-64
2022/10/22 07:42:24;;;;;;;12.20;3.72;;;14.20;99.90;;;;;;5077226;28;20055;-64
2022/10/22 07:44:50;;;;;;;12.27;3.30;;;14.20;99.90;;;;;;5062455;28;20094;-64
2022/10/22 07:47:16;;;;;;;13.40;3.28;;;14.20;99.90;;;;;;5081386;28;20040;-64
2022/10/22 07:49:41;;;;;;;13.93;3.28;;;14.30;99.90;;;;;;5082743;28;20058;-64
2022/10/22 07:52:07;;;;;;;13.48;3.40;;;14.30;99.90;;;;;;5080901;28;20075;-64
2022/10/22 07:54:32;;;;;;;9.05;3.63;;;14.30;99.90;;;;;;5082191;28;20032;-64
2022/10/22 07:56:58;;;;;;;8.30;2.90;;;14.30;99.90;;;;;;5079800;28;20127;-64
2022/10/22 07:59:23;;;;;;;11.82;3.60;;;14.40;99.90;;;;;;5080551;28;20042;-64
2022/10/22 08:01:49;;;;;;;9.50;3.05;;;14.40;99.90;;;;;;5060175;28;20782;-64
2022/10/22 08:04:14;;;;;;;15.23;3.42;;;14.50;99.90;;;;;;5077463;28;20489;-64
2022/10/22 08:06:40;;;;;;;8.93;3.05;;;14.50;99.90;;;;;;5063624;28;20044;-64
2022/10/22 08:09:05;;;;;;;12.73;3.42;;;14.60;99.90;;;;;;5056304;28;20316;-65
2022/10/22 08:11:32;;;;;;;9.38;3.47;;;14.60;99.90;;;;;;5077560;28;20039;-65
2022/10/22 08:13:58;;;;;;;10.73;3.72;;;14.80;99.90;;;;;;5071958;28;20119;-65
2022/10/22 08:16:24;;;;;;;10.60;3.53;;;14.90;99.90;;;;;;5061989;28;20032;-65
2022/10/22 08:18:50;;;;;;;6.90;3.17;;;14.90;99.90;;;;;;5073953;28;20502;-65
2022/10/22 08:21:16;;;;;;;13.65;3.60;;;15.00;99.90;;;;;;5081186;28;20044;-65
2022/10/22 08:23:42;;;;;;;9.52;2.90;;;15.00;99.90;;;;;;5064628;28;20492;-64
2022/10/22 08:26:08;;;;;;;13.30;3.40;;;15.00;99.90;;;;;;5061197;28;20536;-64
2022/10/22 08:28:36;;;;;;;13.77;3.30;;;15.00;99.90;;;;;;5078258;28;20407;-65
2022/10/22 08:31:06;;;;;;;6.70;2.80;;;15.10;99.90;;;;;;5075390;28;20527;-64
2022/10/22 08:33:32;;;;;;;16.55;2.90;;;15.10;99.90;;;;;;5079639;28;20038;-65
2022/10/22 08:35:58;;;;;;;7.07;2.80;;;15.10;99.90;;;;;;5080338;28;20570;-65
2022/10/22 08:38:23;;;;;;;11.48;3.25;;;15.10;99.90;;;;;;5074123;28;20043;-65
2022/10/22 08:40:53;;;;;;;12.65;3.35;;;15.20;99.90;;;;;;5081790;28;20039;-65
2022/10/22 08:43:50;;;;;;;32.65;19.20;;;15.30;99.90;;;;;;5083153;28;20032;-65
2022/10/22 08:46:34;;;;;;;12.05;2.97;;;15.30;99.90;;;;;;5083418;28;20044;-65
2022/10/22 08:49:01;;;;;;;;;;;15.40;99.90;;;;;;5079711;28;20071;-65
2022/10/22 08:51:33;;;;;;;10.35;2.40;;;15.40;99.90;;;;;;5081619;28;19919;-65
2022/10/22 08:54:17;;;;;;;9.43;2.17;;;15.50;99.90;;;;;;5082698;28;20047;-65
2022/10/22 08:56:51;;;;;;;9.18;2.38;;;15.50;99.90;;;;;;5081979;28;20044;-65
2022/10/22 08:59:25;;;;;;;11.18;2.65;;;15.50;99.90;;;;;;5081388;28;20493;-64
2022/10/22 09:01:53;;;;;;;9.50;2.55;;;15.60;99.90;;;;;;5063878;28;20487;-65
2022/10/22 09:04:44;;;;;;;11.52;2.78;;;15.60;99.90;;;;;;5065387;28;20372;-64
2022/10/22 09:07:10;;;;;;;9.55;2.38;;;15.70;99.90;;;;;;5082967;28;20464;-65
2022/10/22 09:09:45;;;;;;;15.45;2.80;;;15.70;99.90;;;;;;5084897;28;20105;-65
2022/10/22 09:12:14;;;;;;;11.73;2.58;;;15.80;99.90;;;;;;5080882;28;20044;-65
2022/10/22 09:14:40;;;;;;;9.60;2.38;;;15.90;99.90;;;;;;5081207;28;20035;-65
2022/10/22 09:17:15;;;;;;;12.88;2.53;;;15.80;99.90;;;;;;5083749;28;20044;-65
2022/10/22 09:19:54;;;;;;;10.77;2.17;;;15.80;99.90;;;;;;5083802;28;20507;-65
2022/10/22 09:22:49;;;;;;;10.60;2.38;;;15.90;99.90;;;;;;5081190;28;20036;-65
2022/10/22 09:25:25;;;;;;;8.57;2.05;;;16.00;99.90;;;;;;5077028;28;20043;-65
2022/10/22 09:27:53;;;;;;;18.10;2.70;;;16.00;99.90;;;;;;5082757;28;20043;-64
2022/10/22 09:30:22;;;;;;;13.05;2.20;;;16.00;99.90;;;;;;5084566;28;20028;-64
2022/10/22 09:32:57;;;;;;;9.57;2.28;;;16.00;99.90;;;;;;5084486;28;20473;-64
2022/10/22 09:35:23;;;;;;;15.45;2.95;;;16.00;99.90;;;;;;5066186;28;20430;-64
2022/10/22 09:37:54;;;;;;;8.98;2.00;;;16.10;99.90;;;;;;5079234;28;20106;-64
2022/10/22 09:40:20;;;;;;;8.90;1.92;;;16.10;99.90;;;;;;5084920;28;20052;-64
2022/10/22 09:42:46;;;;;;;11.45;2.17;;;16.20;99.90;;;;;;5083140;28;20136;-64
2022/10/22 09:45:19;;;;;;;7.60;2.13;;;16.30;99.90;;;;;;5083642;28;20021;-64
2022/10/22 09:47:45;;;;;;;8.38;1.90;;;16.40;99.90;;;;;;5081378;28;20028;-64
2022/10/22 09:50:25;;;;;;;9.15;2.08;;;16.40;99.90;;;;;;5082706;28;20511;-64
2022/10/22 09:53:11;;;;;;;10.07;2.17;;;16.40;99.90;;;;;;5083677;28;20061;-64
2022/10/22 09:55:39;;;;;;;6.20;1.77;;;16.40;99.90;;;;;;5085137;28;20046;-65
2022/10/22 09:58:09;;;;;;;10.15;1.80;;;16.50;99.90;;;;;;5081474;28;20032;-64
2022/10/22 10:00:38;;;;;;;13.55;2.15;;;16.50;99.90;;;;;;5064652;28;20040;-64
2022/10/22 10:03:04;;;;;;;6.70;1.60;;;16.50;99.90;;;;;;5083321;28;20105;-64
2022/10/22 10:05:33;;;;;;;6.70;1.58;;;16.50;99.90;;;;;;5083438;28;20040;-64
2022/10/22 10:08:10;;;;;;;10.68;2.10;;;16.50;99.90;;;;;;5083852;28;20085;-64
2022/10/22 10:10:45;;;;;;;9.00;1.92;;;16.50;99.90;;;;;;5083208;28;20682;-64
2022/10/22 10:13:33;;;;;;;8.38;2.05;;;16.60;99.90;;;;;;5064513;28;20069;-64
2022/10/22 10:16:26;;;;;;;11.35;2.00;;;16.60;99.90;;;;;;5060914;28;20082;-64
2022/10/22 10:19:20;;;;;;;6.45;1.63;;;16.60;99.90;;;;;;5082676;28;20544;-64
2022/10/22 10:22:04;;;;;;;6.00;1.92;;;16.60;99.90;;;;;;5078796;28;20043;-65
2022/10/22 10:24:56;;;;;;;6.45;1.52;;;16.60;99.90;;;;;;5076523;28;20490;-64
2022/10/22 10:27:29;;;;;;;7.57;1.75;;;16.70;99.90;;;;;;5076755;28;20507;-64
2022/10/22 10:30:08;;;;;;;7.40;1.60;;;16.70;99.90;;;;;;5080473;28;20054;-64
2022/10/22 10:32:40;;;;;;;6.13;1.55;;;16.80;99.90;;;;;;5082230;28;20052;-64
2022/10/22 10:35:18;;;;;;;13.10;1.92;;;16.80;99.90;;;;;;5081598;28;20519;-64
2022/10/22 10:38:18;;;;;;;7.10;1.58;;;16.80;99.90;;;;;;5064588;28;20066;-64
2022/10/22 10:40:47;;;;;;;6.75;2.05;;;16.80;99.90;;;;;;5077391;28;20047;-64
2022/10/22 10:43:16;;;;;;;6.20;1.65;;;16.90;99.90;;;;;;5080906;28;20042;-64
2022/10/22 10:46:04;;;;;;;9.82;1.55;;;17.10;99.90;;;;;;5082254;28;20063;-64
2022/10/22 10:48:41;;;;;;;6.50;1.45;;;17.00;99.90;;;;;;5063460;28;20192;-64
2022/10/22 10:51:34;;;;;;;10.52;1.65;;;17.10;99.90;;;;;;5063083;28;20062;-65
2022/10/22 10:54:05;;;;;;;8.18;1.58;;;17.20;99.90;;;;;;5078448;28;20039;-64
2022/10/22 10:56:43;;;;;;;8.38;1.50;;;17.20;99.90;;;;;;5077490;28;20039;-64
2022/10/22 10:59:38;;;;;;;7.80;1.85;;;17.20;99.90;;;;;;5084347;28;20121;-64
2022/10/22 11:02:20;;;;;;;8.30;1.85;;;17.20;99.90;;;;;;5067548;28;20062;-64
2022/10/22 11:05:00;;;;;;;8.40;1.70;;;17.10;99.90;;;;;;5079725;28;20122;-64
2022/10/22 11:07:35;;;;;;;8.43;1.60;;;17.20;99.90;;;;;;5078809;28;20398;-64
2022/10/22 11:10:23;;;;;;;7.47;1.58;;;17.20;99.90;;;;;;5081053;28;20135;-64
2022/10/22 11:12:54;;;;;;;7.53;1.75;;;17.20;99.90;;;;;;5078536;28;20032;-64
2022/10/22 11:15:28;;;;;;;6.97;1.42;;;17.10;99.90;;;;;;5080077;28;20108;-64
2022/10/22 11:17:59;;;;;;;9.32;1.80;;;17.10;99.90;;;;;;5082049;28;20043;-64
2022/10/22 11:20:51;;;;;;;6.90;1.70;;;17.20;99.90;;;;;;5072883;28;20081;-64
2022/10/22 11:23:49;;;;;;;7.30;1.65;;;17.20;99.90;;;;;;5067616;28;20362;-64
2022/10/22 11:26:34;;;;;;;7.25;1.52;;;17.20;99.90;;;;;;5060570;28;20028;-64
2022/10/22 11:29:02;;;;;;;8.70;2.00;;;17.20;99.90;;;;;;5083386;28;20052;-65
2022/10/22 11:31:30;;;;;;;5.63;1.15;;;17.20;99.90;;;;;;5078888;28;20032;-64
2022/10/22 11:34:32;;;;;;;9.68;1.65;;;17.30;99.90;;;;;;5078919;28;20036;-64
2022/10/22 11:36:58;;;;;;;8.88;2.08;;;17.30;99.90;;;;;;5074484;28;20051;-64
2022/10/22 11:39:42;;;;;;;8.75;1.60;;;17.30;99.90;;;;;;5079159;28;20392;-64
2022/10/22 11:42:38;;;;;;;9.77;1.70;;;17.30;99.90;;;;;;5080656;28;20040;-64
2022/10/22 11:45:25;;;;;;;7.57;1.60;;;17.30;99.90;;;;;;5061561;28;20390;-64
2022/10/22 11:48:08;;;;;;;5.53;1.52;;;17.20;99.90;;;;;;5080028;28;20186;-64
2022/10/22 11:50:40;;;;;;;10.35;1.52;;;17.30;99.90;;;;;;5076575;28;20028;-64
2022/10/22 11:53:18;;;;;;;9.40;1.67;;;17.30;99.90;;;;;;5081531;28;20024;-64
2022/10/22 11:55:54;;;;;;;5.65;1.60;;;17.30;99.90;;;;;;5080866;28;20042;-64
2022/10/22 11:58:43;;;;;;;7.28;1.60;;;17.30;99.90;;;;;;5055590;28;20032;-64
2022/10/22 12:01:09;;;;;;;7.25;1.65;;;17.30;99.90;;;;;;5082192;28;20059;-64
2022/10/22 12:03:36;;;;;;;9.60;1.95;;;17.40;99.90;;;;;;5080910;28;20063;-64
2022/10/22 12:06:11;;;;;;;8.43;1.90;;;17.40;99.90;;;;;;5080724;28;20559;-64
2022/10/22 12:08:45;;;;;;;7.20;1.48;;;17.40;99.90;;;;;;5082128;28;20564;-64
2022/10/22 12:11:11;;;;;;;6.07;1.60;;;17.40;99.90;;;;;;5078742;28;20089;-64
2022/10/22 12:14:18;;;;;;;8.90;1.70;;;17.50;99.90;;;;;;5080564;28;20036;-64
2022/10/22 12:16:54;;;;;;;6.13;1.60;;;17.50;99.90;;;;;;5085058;28;20040;-64
2022/10/22 12:19:27;;;;;;;6.47;1.58;;;17.50;99.90;;;;;;5082171;28;20059;-64
2022/10/22 12:21:54;;;;;;;4.63;1.48;;;17.50;99.90;;;;;;5067272;28;20360;-64
2022/10/22 12:24:22;;;;;;;11.20;1.70;;;17.50;99.90;;;;;;5083026;28;20123;-64
2022/10/22 12:26:51;;;;;;;9.18;1.40;;;17.50;99.90;;;;;;5086598;28;20075;-64
2022/10/22 12:29:21;;;;;;;6.05;1.67;;;17.60;99.90;;;;;;5087094;28;20059;-64
2022/10/22 12:31:47;;;;;;;7.90;1.50;;;17.60;99.90;;;;;;5083037;28;20044;-64
2022/10/22 12:34:23;;;;;;;5.57;1.45;;;17.70;99.90;;;;;;5082802;28;20059;-64
2022/10/22 12:36:50;;;;;;;7.63;1.58;;;17.70;99.90;;;;;;5064722;28;20629;-64
2022/10/22 12:39:19;;;;;;;5.47;1.40;;;17.70;99.90;;;;;;5083757;28;20036;-64
2022/10/22 12:41:45;;;;;;;6.53;1.52;;;17.80;99.90;;;;;;5082764;28;20036;-64
2022/10/22 12:44:13;;;;;;;5.65;1.48;;;17.80;99.90;;;;;;5057213;28;20028;-64
2022/10/22 12:46:40;;;;;;;7.53;1.80;;;17.80;99.90;;;;;;5063235;28;20069;-64
2022/10/22 12:49:14;;;;;;;6.95;1.40;;;17.80;99.90;;;;;;5083576;28;20399;-63
2022/10/22 12:51:39;;;;;;;6.88;1.45;;;17.80;99.90;;;;;;5082387;28;20036;-64
2022/10/22 12:54:28;;;;;;;5.10;1.33;;;17.80;99.90;;;;;;5084687;28;20122;-64
2022/10/22 12:56:55;;;;;;;10.05;1.83;;;17.80;99.90;;;;;;5084772;28;20032;-63
2022/10/22 12:59:33;;;;;;;7.47;1.65;;;17.90;99.90;;;;;;5077713;28;22287;-64